Hardy, Nebraska
Current Conditions -  °F | °C
As of 11:35 AM on Friday 21 Nov 2014 (Local Time) from KHJH Reporting Station
Clear Clear  
Wind Chill: 33°   Ceiling: Unl
Heat Index: 37°   Visibility: 10mi
Dew Point: 23°   Wind: 5mph
Humidity: 57%   Direction: 200°SSW
Pressure: 30.12"   Gusts: NA
Location:  40.01°N, 97.93°W
Report Text: KHJH 211735Z AUTO 20004KT 10SM CLR 03/M05 A3012 RMK AO2 T00281049
Loading
Personal Weather Stations






























Interactive Weather Map New forecast layout! Learn more

10-Day Weather Forecast

Advertisements
Track Severe Weather on mobile